createdAt,value
2023-02-22T00:01:08.298Z,0.30
2023-02-22T00:03:39.139Z,0.30
2023-02-22T00:06:08.017Z,0.40
2023-02-22T00:08:38.470Z,0.30
2023-02-22T00:11:09.572Z,0.40
2023-02-22T00:13:39.376Z,0.30
2023-02-22T00:16:08.603Z,0.40
2023-02-22T00:18:38.433Z,0.30
2023-02-22T00:21:10.699Z,0.40
2023-02-22T00:23:43.480Z,0.40
2023-02-22T00:26:13.284Z,0.40
2023-02-22T00:28:42.533Z,0.30
2023-02-22T00:31:10.878Z,0.33
2023-02-22T00:33:41.832Z,0.40
2023-02-22T00:36:12.179Z,0.30
2023-02-22T00:38:41.357Z,0.40
2023-02-22T00:41:10.112Z,0.40
2023-02-22T00:43:38.734Z,0.40
2023-02-22T00:46:07.239Z,0.30
2023-02-22T00:48:35.661Z,0.50
2023-02-22T00:51:05.742Z,0.30
2023-02-22T00:53:34.322Z,0.40
2023-02-22T00:56:02.745Z,0.30
2023-02-22T00:58:32.084Z,0.30
2023-02-22T01:01:00.581Z,0.40
2023-02-22T01:03:29.044Z,0.30
2023-02-22T01:05:57.649Z,0.40
2023-02-22T01:08:29.656Z,0.30
2023-02-22T01:10:58.161Z,0.43
2023-02-22T01:13:27.052Z,0.30
2023-02-22T01:15:56.793Z,0.30
2023-02-22T01:18:25.961Z,0.30
2023-02-22T01:20:54.511Z,0.30
2023-02-22T01:23:23.098Z,0.30
2023-02-22T01:25:53.331Z,0.40
2023-02-22T01:28:22.569Z,0.37
2023-02-22T01:30:51.627Z,0.40
2023-02-22T01:33:20.282Z,0.30
2023-02-22T01:35:50.896Z,0.40
2023-02-22T01:38:19.544Z,0.37
2023-02-22T01:40:50.318Z,0.30
2023-02-22T01:43:22.911Z,0.40
2023-02-22T01:46:01.140Z,0.40
2023-02-22T01:48:42.717Z,0.30
2023-02-22T01:51:14.766Z,0.30
2023-02-22T01:53:50.159Z,0.30
2023-02-22T01:56:20.464Z,0.33
2023-02-22T01:58:53.984Z,0.43
2023-02-22T02:01:24.410Z,0.33
2023-02-22T02:03:58.234Z,0.37
2023-02-22T02:06:28.054Z,0.40
2023-02-22T02:09:03.985Z,0.37
2023-02-22T02:11:33.710Z,0.50
2023-02-22T02:14:03.825Z,0.40
2023-02-22T02:16:39.371Z,0.30
2023-02-22T02:19:15.728Z,0.30
2023-02-22T02:22:05.858Z,0.40
2023-02-22T02:25:07.959Z,0.30
2023-02-22T02:27:53.464Z,0.30
2023-02-22T02:30:48.084Z,0.50
2023-02-22T02:33:21.613Z,0.40
2023-02-22T02:35:58.783Z,0.47
2023-02-22T02:38:36.348Z,0.40
2023-02-22T02:41:13.375Z,0.40
2023-02-22T02:43:49.100Z,0.50
2023-02-22T02:46:24.270Z,0.33
2023-02-22T02:48:58.569Z,0.33
2023-02-22T02:51:31.852Z,0.30
2023-02-22T02:54:01.623Z,0.30
2023-02-22T02:56:30.996Z,0.40
2023-02-22T02:58:59.515Z,0.40
2023-02-22T03:01:44.893Z,0.30
2023-02-22T03:04:28.141Z,0.40
2023-02-22T03:07:22.021Z,0.60
2023-02-22T03:10:02.286Z,0.40
2023-02-22T03:12:44.121Z,0.40
2023-02-22T03:15:25.411Z,0.30
2023-02-22T03:17:57.908Z,0.40
2023-02-22T03:20:32.673Z,0.40
2023-02-22T03:23:06.921Z,0.40
2023-02-22T03:25:39.790Z,0.30
2023-02-22T03:28:13.082Z,0.43
2023-02-22T03:30:46.786Z,0.50
2023-02-22T03:33:20.502Z,0.30
2023-02-22T03:35:56.969Z,0.30
2023-02-22T03:38:29.929Z,0.40
2023-02-22T03:41:01.030Z,0.60
2023-02-22T03:43:32.898Z,0.30
2023-02-22T03:46:03.882Z,0.40
2023-02-22T03:48:40.771Z,0.40
2023-02-22T03:51:10.633Z,0.37
2023-02-22T03:53:39.264Z,0.30
2023-02-22T03:56:12.174Z,0.23
2023-02-22T03:58:44.117Z,0.30
2023-02-22T04:01:14.222Z,0.30
2023-02-22T04:03:43.466Z,0.30
2023-02-22T04:06:13.699Z,0.30
2023-02-22T04:08:44.139Z,0.30
2023-02-22T04:11:12.653Z,0.40
2023-02-22T04:13:40.943Z,0.40
2023-02-22T04:16:09.428Z,0.30
2023-02-22T04:18:37.822Z,0.30
2023-02-22T04:21:06.530Z,0.30
2023-02-22T04:23:36.428Z,0.40
2023-02-22T04:26:04.818Z,0.27
2023-02-22T04:28:33.593Z,0.40
2023-02-22T04:31:01.915Z,0.37
2023-02-22T04:33:30.291Z,0.40
2023-02-22T04:35:59.542Z,0.30
2023-02-22T04:38:28.254Z,0.40
2023-02-22T04:40:57.960Z,0.30
2023-02-22T04:43:26.610Z,0.30
2023-02-22T04:45:55.089Z,0.40
2023-02-22T04:48:23.480Z,0.30
2023-02-22T04:50:52.325Z,0.40
2023-02-22T04:53:20.669Z,0.50
2023-02-22T04:55:48.991Z,0.40
2023-02-22T04:58:18.929Z,0.40
2023-02-22T05:00:50.572Z,0.53
2023-02-22T05:03:19.292Z,0.40
2023-02-22T05:05:47.752Z,0.50
2023-02-22T05:08:16.215Z,0.50
2023-02-22T05:10:44.531Z,0.40
2023-02-22T05:13:12.877Z,0.40
2023-02-22T05:15:42.720Z,0.33
2023-02-22T05:18:11.324Z,0.40
2023-02-22T05:20:39.636Z,0.47
2023-02-22T05:23:08.379Z,0.40
2023-02-22T05:25:36.843Z,0.27
2023-02-22T05:28:08.868Z,0.40
2023-02-22T05:30:39.730Z,0.53
2023-02-22T05:33:10.327Z,0.30
2023-02-22T05:35:38.823Z,0.40
2023-02-22T05:38:07.734Z,0.40
2023-02-22T05:40:36.504Z,0.50
2023-02-22T05:43:05.170Z,0.47
2023-02-22T05:45:33.622Z,0.40
2023-02-22T05:48:05.573Z,0.50
2023-02-22T05:50:38.780Z,0.60
2023-02-22T05:53:07.213Z,0.60
2023-02-22T05:55:35.712Z,0.50
2023-02-22T05:58:06.012Z,0.43
2023-02-22T06:00:34.775Z,0.40
2023-02-22T06:03:05.706Z,0.30
2023-02-22T06:05:34.171Z,0.50
2023-02-22T06:08:04.879Z,0.40
2023-02-22T06:10:33.737Z,0.30
2023-02-22T06:13:03.102Z,0.40
2023-02-22T06:15:31.598Z,0.40
2023-02-22T06:18:00.336Z,0.33
2023-02-22T06:20:30.449Z,0.30
2023-02-22T06:22:59.676Z,0.40
2023-02-22T06:25:32.509Z,0.50
2023-02-22T06:28:11.005Z,0.37
2023-02-22T06:30:39.517Z,0.40
2023-02-22T06:33:08.236Z,0.40
2023-02-22T06:35:42.666Z,0.40
2023-02-22T06:38:25.729Z,0.40
2023-02-22T06:40:58.772Z,0.50
2023-02-22T06:43:27.182Z,0.40
2023-02-22T06:45:58.751Z,0.33
2023-02-22T06:48:27.282Z,0.47
2023-02-22T06:50:55.686Z,0.50
2023-02-22T06:53:24.303Z,0.40
2023-02-22T06:55:55.007Z,0.43
2023-02-22T06:58:24.848Z,0.40
2023-02-22T07:00:53.408Z,0.40
2023-02-22T07:03:22.307Z,0.40
2023-02-22T07:05:50.947Z,0.50
2023-02-22T07:08:19.545Z,0.50
2023-02-22T07:10:50.455Z,0.50
2023-02-22T07:13:18.788Z,0.40
2023-02-22T07:15:48.626Z,0.67
2023-02-22T07:18:17.284Z,0.37
2023-02-22T07:20:45.572Z,0.40
2023-02-22T07:23:15.790Z,0.50
2023-02-22T07:25:44.877Z,0.30
2023-02-22T07:28:13.765Z,0.50
2023-02-22T07:30:42.194Z,0.50
2023-02-22T07:33:14.328Z,0.40
2023-02-22T07:35:47.266Z,0.40
2023-02-22T07:38:16.830Z,0.30
2023-02-22T07:40:46.244Z,0.30
2023-02-22T07:43:19.336Z,0.50
2023-02-22T07:45:49.166Z,0.23
2023-02-22T07:48:21.794Z,0.30
2023-02-22T07:50:51.004Z,0.50
2023-02-22T07:53:21.393Z,0.40
2023-02-22T07:55:51.231Z,0.33
2023-02-22T07:58:22.184Z,0.30
2023-02-22T08:00:50.549Z,0.23
2023-02-22T08:03:22.119Z,0.33
2023-02-22T08:05:52.867Z,0.47
2023-02-22T08:08:21.783Z,0.47
2023-02-22T08:10:51.453Z,0.43
2023-02-22T08:13:22.214Z,0.30
2023-02-22T08:15:53.615Z,0.30
2023-02-22T08:18:24.747Z,0.40
2023-02-22T08:20:54.458Z,0.33
2023-02-22T08:23:25.406Z,0.30
2023-02-22T08:25:54.215Z,0.50
2023-02-22T08:28:26.464Z,0.30
2023-02-22T08:30:55.074Z,0.30
2023-02-22T08:33:25.290Z,0.33
2023-02-22T08:35:54.047Z,0.30
2023-02-22T08:38:24.389Z,0.30
2023-02-22T08:40:53.327Z,0.30
2023-02-22T08:43:22.484Z,0.40
2023-02-22T08:45:52.906Z,0.30
2023-02-22T08:48:22.586Z,0.30
2023-02-22T08:50:52.649Z,0.30
2023-02-22T08:53:21.048Z,0.20
2023-02-22T08:55:49.840Z,0.20
2023-02-22T08:58:18.367Z,0.30
2023-02-22T09:00:47.353Z,0.30
2023-02-22T09:03:17.000Z,0.30
2023-02-22T09:05:45.960Z,0.30
2023-02-22T09:08:17.317Z,0.30
2023-02-22T09:10:46.564Z,0.27
2023-02-22T09:13:15.055Z,0.30
2023-02-22T09:15:43.369Z,0.30
2023-02-22T09:18:14.741Z,0.30
2023-02-22T09:20:43.745Z,0.20
2023-02-22T09:23:14.434Z,0.33
2023-02-22T09:25:44.473Z,0.30
2023-02-22T09:28:13.088Z,0.30
2023-02-22T09:30:41.854Z,0.23
2023-02-22T09:33:12.464Z,0.20
2023-02-22T09:35:45.793Z,0.40
2023-02-22T09:38:18.742Z,0.30
2023-02-22T09:40:52.164Z,0.20
2023-02-22T09:43:33.961Z,0.30
2023-02-22T09:46:20.354Z,0.30
2023-02-22T09:49:05.339Z,0.20
2023-02-22T09:51:41.282Z,0.30
2023-02-22T09:54:23.512Z,0.30
2023-02-22T09:56:59.218Z,0.30
2023-02-22T09:59:31.829Z,0.30
2023-02-22T10:02:07.582Z,0.20
2023-02-22T10:04:44.578Z,0.20
2023-02-22T10:07:19.659Z,0.20
2023-02-22T10:09:50.154Z,0.27
2023-02-22T10:12:30.075Z,0.20
2023-02-22T10:15:17.379Z,0.20
2023-02-22T10:17:53.919Z,0.20
2023-02-22T10:20:41.129Z,0.20
2023-02-22T10:23:19.309Z,0.30
2023-02-22T10:25:54.459Z,0.30
2023-02-22T10:28:31.082Z,0.20
2023-02-22T10:31:04.617Z,0.30
2023-02-22T10:33:38.045Z,0.20
2023-02-22T10:36:07.769Z,0.20
2023-02-22T10:38:39.250Z,0.30
2023-02-22T10:41:24.466Z,0.30
2023-02-22T10:43:54.213Z,0.30
2023-02-22T10:46:25.403Z,0.30
2023-02-22T10:48:57.703Z,0.20
2023-02-22T10:51:26.216Z,0.27
2023-02-22T10:54:04.459Z,0.30
2023-02-22T10:56:32.975Z,0.30
2023-02-22T10:59:07.666Z,0.20
2023-02-22T11:01:40.921Z,0.20
2023-02-22T11:04:14.656Z,0.20
2023-02-22T11:06:45.051Z,0.20
2023-02-22T11:09:17.996Z,0.20
2023-02-22T11:11:48.685Z,0.20
2023-02-22T11:14:31.102Z,0.20
2023-02-22T11:17:00.628Z,0.20
2023-02-22T11:19:31.116Z,0.20
2023-02-22T11:22:11.247Z,0.20
2023-02-22T11:24:49.254Z,0.20
2023-02-22T11:27:33.017Z,0.20
2023-02-22T11:30:18.568Z,0.20
2023-02-22T11:32:49.244Z,0.10
2023-02-22T11:35:33.392Z,0.20
2023-02-22T11:38:16.315Z,0.20
2023-02-22T11:40:45.923Z,0.20
2023-02-22T11:43:17.951Z,0.20
2023-02-22T11:46:03.740Z,0.20
2023-02-22T11:48:36.856Z,0.30
2023-02-22T11:51:17.654Z,0.20
2023-02-22T11:54:05.507Z,0.20
2023-02-22T11:56:40.996Z,0.20
2023-02-22T11:59:21.828Z,0.20
2023-02-22T12:01:55.330Z,0.20
2023-02-22T12:05:01.293Z,0.20
2023-02-22T12:07:46.228Z,0.20
2023-02-22T12:10:25.180Z,0.20
2023-02-22T12:13:06.270Z,0.20
2023-02-22T12:15:41.191Z,0.20
2023-02-22T12:18:18.837Z,0.20
2023-02-22T12:20:51.145Z,0.20
2023-02-22T12:23:27.606Z,0.20
2023-02-22T12:26:05.420Z,0.20
2023-02-22T12:28:36.971Z,0.20
2023-02-22T12:31:14.497Z,0.20
2023-02-22T12:33:56.533Z,0.20
2023-02-22T12:36:33.640Z,0.20
2023-02-22T12:39:07.468Z,0.20
2023-02-22T12:41:40.686Z,0.20
2023-02-22T12:44:17.387Z,0.20
2023-02-22T12:46:50.018Z,0.20
2023-02-22T12:49:28.340Z,0.10
2023-02-22T12:52:12.452Z,0.20
2023-02-22T12:54:56.746Z,0.20
2023-02-22T12:57:34.837Z,0.10
2023-02-22T13:00:08.095Z,0.20
2023-02-22T13:02:43.631Z,0.20
2023-02-22T13:05:18.848Z,0.20
2023-02-22T13:07:53.824Z,0.20
2023-02-22T13:10:35.069Z,0.10
2023-02-22T13:13:10.246Z,0.20
2023-02-22T13:15:47.011Z,0.20
2023-02-22T13:18:24.223Z,0.20
2023-02-22T13:20:59.342Z,0.20
2023-02-22T13:23:39.047Z,0.10
2023-02-22T13:26:13.413Z,0.20
2023-02-22T13:28:48.347Z,0.20
2023-02-22T13:31:36.566Z,0.20
2023-02-22T13:34:22.957Z,0.20
2023-02-22T13:37:17.865Z,0.27
2023-02-22T13:40:07.792Z,0.10
2023-02-22T13:43:14.614Z,0.20
2023-02-22T13:46:03.889Z,0.20
2023-02-22T13:48:50.132Z,0.10
2023-02-22T13:51:36.482Z,0.20
2023-02-22T13:54:10.009Z,0.10
2023-02-22T13:56:43.690Z,0.10
2023-02-22T13:59:26.561Z,0.10
2023-02-22T14:01:55.386Z,0.10
2023-02-22T14:04:44.137Z,0.20
2023-02-22T14:07:55.386Z,0.20
2023-02-22T14:10:46.365Z,0.20
2023-02-22T14:13:16.257Z,0.10
2023-02-22T14:16:17.883Z,0.20
2023-02-22T14:18:50.188Z,0.10
2023-02-22T14:21:20.556Z,0.10
2023-02-22T14:23:50.387Z,0.10
2023-02-22T14:26:25.900Z,0.10
2023-02-22T14:28:58.121Z,0.20
2023-02-22T14:31:36.418Z,0.10
2023-02-22T14:34:11.606Z,0.10
2023-02-22T14:36:50.901Z,0.20
2023-02-22T14:39:31.855Z,0.20
2023-02-22T14:42:05.656Z,0.20
2023-02-22T14:44:40.094Z,0.20
2023-02-22T14:47:15.394Z,0.10
2023-02-22T14:49:48.059Z,0.20
2023-02-22T14:52:25.314Z,0.20
2023-02-22T14:55:04.552Z,0.20
2023-02-22T14:57:44.787Z,0.20
2023-02-22T15:00:31.061Z,0.20
2023-02-22T15:03:01.191Z,0.20
2023-02-22T15:05:32.222Z,0.20
2023-02-22T15:08:03.820Z,0.20
2023-02-22T15:10:42.824Z,0.20
2023-02-22T15:13:20.677Z,0.20
2023-02-22T15:15:50.736Z,0.20
2023-02-22T15:18:27.150Z,0.20
2023-02-22T15:20:59.401Z,0.20
2023-02-22T15:23:33.405Z,0.20
2023-02-22T15:26:02.860Z,0.20
2023-02-22T15:28:32.831Z,0.20
2023-02-22T15:31:25.521Z,0.20
2023-02-22T15:33:55.498Z,0.20
2023-02-22T15:36:27.725Z,0.20
2023-02-22T15:38:59.758Z,0.20
2023-02-22T15:41:33.716Z,0.20
2023-02-22T15:44:17.798Z,0.30
2023-02-22T15:46:54.652Z,0.20
2023-02-22T15:49:24.612Z,0.27
2023-02-22T15:52:07.146Z,0.20
2023-02-22T15:54:44.666Z,0.20
2023-02-22T15:57:25.471Z,0.20
2023-02-22T15:59:58.552Z,0.20
2023-02-22T16:02:39.326Z,0.20
2023-02-22T16:05:11.759Z,0.20
2023-02-22T16:07:46.151Z,0.20
2023-02-22T16:10:27.204Z,0.20
2023-02-22T16:13:06.983Z,0.20
2023-02-22T16:15:37.287Z,0.30
2023-02-22T16:18:29.986Z,0.20
2023-02-22T16:21:03.615Z,0.20
2023-02-22T16:23:33.655Z,0.30
2023-02-22T16:26:20.494Z,0.30
2023-02-22T16:28:52.112Z,0.20
2023-02-22T16:31:26.851Z,0.30
2023-02-22T16:33:56.038Z,0.20
2023-02-22T16:36:38.781Z,0.20
2023-02-22T16:39:08.505Z,0.20
2023-02-22T16:41:36.971Z,0.20
2023-02-22T16:44:07.837Z,0.20
2023-02-22T16:46:38.174Z,0.20
2023-02-22T16:49:07.372Z,0.20
2023-02-22T16:51:56.517Z,0.20
2023-02-22T16:54:34.813Z,0.20
2023-02-22T16:57:05.324Z,0.30
2023-02-22T16:59:39.883Z,0.20
2023-02-22T17:02:15.553Z,0.30
2023-02-22T17:04:56.910Z,0.20
2023-02-22T17:07:32.630Z,0.33
2023-02-22T17:10:01.669Z,0.20
2023-02-22T17:12:31.944Z,0.20
2023-02-22T17:15:00.595Z,0.20
2023-02-22T17:17:32.758Z,0.30
2023-02-22T17:20:06.796Z,0.20
2023-02-22T17:22:35.421Z,0.20
2023-02-22T17:25:16.043Z,0.20
2023-02-22T17:27:44.488Z,0.30
2023-02-22T17:30:14.789Z,0.30
2023-02-22T17:32:45.064Z,0.20
2023-02-22T17:35:13.674Z,0.30
2023-02-22T17:37:43.146Z,0.20
2023-02-22T17:40:14.875Z,0.30
2023-02-22T17:42:44.171Z,0.30
2023-02-22T17:45:15.142Z,0.30
2023-02-22T17:47:46.412Z,0.30
2023-02-22T17:50:15.507Z,0.30
2023-02-22T17:52:44.403Z,0.30
2023-02-22T17:55:13.874Z,0.30
2023-02-22T17:57:44.158Z,0.20
2023-02-22T18:00:16.062Z,0.30
2023-02-22T18:02:46.141Z,0.30
2023-02-22T18:05:16.311Z,0.30
2023-02-22T18:07:45.429Z,0.30
2023-02-22T18:10:15.341Z,0.30
2023-02-22T18:12:44.989Z,0.30
2023-02-22T18:15:17.599Z,0.40
2023-02-22T18:17:48.481Z,0.40
2023-02-22T18:20:31.074Z,0.40
2023-02-22T18:23:05.580Z,0.20
2023-02-22T18:25:35.928Z,0.30
2023-02-22T18:28:06.379Z,0.30
2023-02-22T18:30:36.825Z,0.30
2023-02-22T18:33:07.228Z,0.30
2023-02-22T18:35:35.905Z,0.30
2023-02-22T18:38:04.998Z,0.30
2023-02-22T18:40:34.031Z,0.40
2023-02-22T18:43:03.961Z,0.20
2023-02-22T18:45:32.643Z,0.40
2023-02-22T18:48:01.243Z,0.30
2023-02-22T18:50:35.926Z,0.30
2023-02-22T18:53:04.577Z,0.30
2023-02-22T18:55:33.300Z,0.30
2023-02-22T18:58:02.307Z,0.23
2023-02-22T19:00:30.998Z,0.30
2023-02-22T19:03:00.581Z,0.30
2023-02-22T19:05:29.232Z,0.30
2023-02-22T19:07:59.172Z,0.27
2023-02-22T19:10:28.895Z,0.30
2023-02-22T19:12:57.561Z,0.30
2023-02-22T19:15:26.050Z,0.30
2023-02-22T19:17:54.613Z,0.40
2023-02-22T19:20:25.444Z,0.40
2023-02-22T19:22:54.081Z,0.30
2023-02-22T19:25:24.071Z,0.30
2023-02-22T19:27:56.851Z,0.40
2023-02-22T19:30:27.819Z,0.30
2023-02-22T19:32:56.327Z,0.30
2023-02-22T19:35:27.289Z,0.40
2023-02-22T19:37:56.555Z,0.40
2023-02-22T19:40:26.560Z,0.33
2023-02-22T19:42:57.219Z,0.40
2023-02-22T19:45:26.208Z,0.30
2023-02-22T19:47:56.426Z,0.30
2023-02-22T19:50:25.011Z,0.30
2023-02-22T19:52:53.709Z,0.40
2023-02-22T19:55:22.181Z,0.40
2023-02-22T19:57:52.515Z,0.50
2023-02-22T20:00:24.891Z,0.40
2023-02-22T20:03:05.652Z,0.30
2023-02-22T20:05:37.251Z,0.30
2023-02-22T20:08:06.130Z,0.40
2023-02-22T20:10:34.891Z,0.40
2023-02-22T20:13:04.938Z,0.40
2023-02-22T20:15:35.165Z,0.30
2023-02-22T20:18:03.634Z,0.20
2023-02-22T20:20:33.630Z,0.40
2023-02-22T20:23:02.077Z,0.30
2023-02-22T20:25:30.592Z,0.40
2023-02-22T20:28:00.772Z,0.40
2023-02-22T20:30:32.616Z,0.47
2023-02-22T20:33:01.485Z,0.40
2023-02-22T20:35:30.206Z,0.30
2023-02-22T20:37:59.105Z,0.40
2023-02-22T20:40:27.879Z,0.30
2023-02-22T20:42:56.813Z,0.50
2023-02-22T20:45:25.310Z,0.50
2023-02-22T20:47:55.968Z,0.40
2023-02-22T20:50:24.518Z,0.30
2023-02-22T20:52:53.019Z,0.40
2023-02-22T20:55:21.482Z,0.30
2023-02-22T20:57:49.889Z,0.30
2023-02-22T21:00:18.569Z,0.43
2023-02-22T21:02:47.756Z,0.40
2023-02-22T21:05:17.864Z,0.33
2023-02-22T21:07:47.313Z,0.30
2023-02-22T21:10:16.378Z,0.40
2023-02-22T21:12:47.839Z,0.40
2023-02-22T21:15:16.316Z,0.37
2023-02-22T21:17:47.703Z,0.30
2023-02-22T21:20:21.979Z,0.33
2023-02-22T21:22:50.924Z,0.30
2023-02-22T21:25:19.667Z,0.50
2023-02-22T21:27:49.725Z,0.30
2023-02-22T21:30:19.385Z,0.40
2023-02-22T21:32:53.929Z,0.40
2023-02-22T21:35:24.490Z,0.40
2023-02-22T21:37:53.589Z,0.30
2023-02-22T21:40:22.126Z,0.40
2023-02-22T21:42:50.737Z,0.37
2023-02-22T21:45:20.215Z,0.40
2023-02-22T21:47:49.371Z,0.50
2023-02-22T21:50:19.816Z,0.35
2023-02-22T21:52:50.357Z,0.40
2023-02-22T21:55:19.310Z,0.40
2023-02-22T21:57:47.756Z,0.30
2023-02-22T22:00:18.516Z,0.40
2023-02-22T22:02:48.187Z,0.20
2023-02-22T22:05:31.616Z,0.40
2023-02-22T22:08:01.925Z,0.20
2023-02-22T22:10:33.124Z,0.33
2023-02-22T22:13:01.914Z,0.30
2023-02-22T22:15:37.034Z,0.40
2023-02-22T22:18:07.778Z,0.30
2023-02-22T22:20:39.107Z,0.40
2023-02-22T22:23:09.364Z,0.40
2023-02-22T22:25:39.126Z,0.47
2023-02-22T22:28:09.078Z,0.40
2023-02-22T22:30:38.291Z,0.40
2023-02-22T22:33:11.278Z,0.40
2023-02-22T22:35:41.871Z,0.50
2023-02-22T22:38:14.447Z,0.40
2023-02-22T22:40:43.128Z,0.40
2023-02-22T22:43:11.577Z,0.37
2023-02-22T22:45:41.024Z,0.40
2023-02-22T22:48:14.788Z,0.50
2023-02-22T22:50:46.524Z,0.40
2023-02-22T22:53:16.957Z,0.50
2023-02-22T22:55:45.621Z,0.40
2023-02-22T22:58:15.126Z,0.40
2023-02-22T23:00:46.712Z,0.40
2023-02-22T23:03:18.618Z,0.30
2023-02-22T23:05:47.546Z,0.40
2023-02-22T23:08:18.851Z,0.40
2023-02-22T23:10:47.382Z,0.50
2023-02-22T23:13:16.745Z,0.60
2023-02-22T23:15:47.740Z,0.57
2023-02-22T23:18:20.652Z,0.40
2023-02-22T23:20:55.354Z,0.43
2023-02-22T23:23:27.768Z,0.30
2023-02-22T23:26:11.805Z,0.50
2023-02-22T23:28:41.589Z,0.40
2023-02-22T23:31:13.937Z,0.40
2023-02-22T23:33:43.048Z,0.30
2023-02-22T23:36:12.968Z,0.40
2023-02-22T23:38:43.485Z,0.40
2023-02-22T23:41:13.508Z,0.30
2023-02-22T23:43:42.266Z,0.40
2023-02-22T23:46:12.570Z,0.30
2023-02-22T23:48:46.750Z,0.47
2023-02-22T23:51:18.864Z,0.40
2023-02-22T23:53:49.566Z,0.40
2023-02-22T23:56:22.025Z,0.40
2023-02-22T23:58:51.935Z,0.50
